KCGS

College Park Airport

College Park, Maryland, USA
METAR KCGS 252157Z AUTO 19005KT 10SM CLR 29/18 A2991 RMK AO1 T02900178
Observed Flight Rules
May-25 @ 21:57 UTC (27 minutes ago) Visual Flight Rules
Wind Visibility Clouds
190° at 5 knots 10 miles
  • Clear skies
Temperatures Readings
Current 29°C / 84°F
Dewpoint 18°C / 64°F
Humidity 51%
Altimeter 29.91" Hg
Pressure 1013 hPa
Elevation 15
METAR KCGS 252157Z AUTO 19005KT 10SM CLR 29/18 A2991 RMK AO1 T02900178
Observed Flight Rules
May-25 @ 21:57 UTC
(27 minutes ago)
VFR
Wind Visibility
190° at 5 knots 10 miles
Clouds
  • Clear skies
Temperature Dewpoint
29°C / 84°F 18°C / 64°F
Humidity Altimeter Pressure
51% 29.91" Hg 1013 hPa